sensor_id;sensor_type;location;lat;lon;timestamp;P1;durP1;ratioP1;P2;durP2;ratioP2
38427;SDS011;24211;49.980;19.776;2022-10-31T00:01:20;16.02;;;8.10;;
38427;SDS011;24211;49.980;19.776;2022-10-31T00:03:49;16.63;;;8.43;;
38427;SDS011;24211;49.980;19.776;2022-10-31T00:06:17;18.55;;;8.90;;
38427;SDS011;24211;49.980;19.776;2022-10-31T00:08:45;17.88;;;8.93;;
38427;SDS011;24211;49.980;19.776;2022-10-31T00:11:13;17.40;;;9.05;;
38427;SDS011;24211;49.980;19.776;2022-10-31T00:13:40;16.20;;;8.55;;
38427;SDS011;24211;49.980;19.776;2022-10-31T00:16:24;18.35;;;9.48;;
38427;SDS011;24211;49.980;19.776;2022-10-31T00:18:53;20.17;;;9.90;;
38427;SDS011;24211;49.980;19.776;2022-10-31T00:21:24;19.20;;;10.23;;
38427;SDS011;24211;49.980;19.776;2022-10-31T00:23:52;18.95;;;9.43;;
38427;SDS011;24211;49.980;19.776;2022-10-31T00:26:19;18.55;;;9.20;;
38427;SDS011;24211;49.980;19.776;2022-10-31T00:28:47;17.95;;;8.85;;
38427;SDS011;24211;49.980;19.776;2022-10-31T00:31:14;15.68;;;8.55;;
38427;SDS011;24211;49.980;19.776;2022-10-31T00:33:43;15.70;;;8.15;;
38427;SDS011;24211;49.980;19.776;2022-10-31T00:36:11;17.13;;;8.82;;
38427;SDS011;24211;49.980;19.776;2022-10-31T00:38:42;16.63;;;8.27;;
38427;SDS011;24211;49.980;19.776;2022-10-31T00:41:10;15.27;;;8.13;;
38427;SDS011;24211;49.980;19.776;2022-10-31T00:43:40;16.15;;;8.27;;
38427;SDS011;24211;49.980;19.776;2022-10-31T00:46:10;15.35;;;7.90;;
38427;SDS011;24211;49.980;19.776;2022-10-31T00:48:38;13.60;;;7.68;;
38427;SDS011;24211;49.980;19.776;2022-10-31T00:51:05;15.35;;;8.13;;
38427;SDS011;24211;49.980;19.776;2022-10-31T00:53:33;16.25;;;8.20;;
38427;SDS011;24211;49.980;19.776;2022-10-31T00:56:01;14.20;;;7.45;;
38427;SDS011;24211;49.980;19.776;2022-10-31T00:58:29;15.60;;;8.55;;
38427;SDS011;24211;49.980;19.776;2022-10-31T01:04:36;15.85;;;7.65;;
38427;SDS011;24211;49.980;19.776;2022-10-31T01:07:04;14.98;;;7.63;;
38427;SDS011;24211;49.980;19.776;2022-10-31T01:09:31;13.70;;;7.32;;
38427;SDS011;24211;49.980;19.776;2022-10-31T01:11:58;15.68;;;7.47;;
38427;SDS011;24211;49.980;19.776;2022-10-31T01:14:25;14.60;;;7.45;;
38427;SDS011;24211;49.980;19.776;2022-10-31T01:16:56;12.38;;;7.25;;
38427;SDS011;24211;49.980;19.776;2022-10-31T01:19:23;14.45;;;7.38;;
38427;SDS011;24211;49.980;19.776;2022-10-31T01:21:54;14.25;;;7.18;;
38427;SDS011;24211;49.980;19.776;2022-10-31T01:24:22;13.57;;;7.22;;
38427;SDS011;24211;49.980;19.776;2022-10-31T01:26:49;15.40;;;6.95;;
38427;SDS011;24211;49.980;19.776;2022-10-31T01:29:16;13.20;;;6.68;;
38427;SDS011;24211;49.980;19.776;2022-10-31T01:31:43;12.90;;;6.93;;
38427;SDS011;24211;49.980;19.776;2022-10-31T01:34:12;11.95;;;6.72;;
38427;SDS011;24211;49.980;19.776;2022-10-31T01:36:42;15.43;;;7.25;;
38427;SDS011;24211;49.980;19.776;2022-10-31T01:39:12;13.10;;;6.85;;
38427;SDS011;24211;49.980;19.776;2022-10-31T01:41:42;13.27;;;6.93;;
38427;SDS011;24211;49.980;19.776;2022-10-31T01:46:47;14.63;;;6.68;;
38427;SDS011;24211;49.980;19.776;2022-10-31T01:52:14;12.98;;;6.75;;
38427;SDS011;24211;49.980;19.776;2022-10-31T01:55:08;12.02;;;6.70;;
38427;SDS011;24211;49.980;19.776;2022-10-31T01:57:44;11.68;;;6.45;;
38427;SDS011;24211;49.980;19.776;2022-10-31T02:00:17;12.27;;;6.57;;
38427;SDS011;24211;49.980;19.776;2022-10-31T02:02:47;11.65;;;6.13;;
38427;SDS011;24211;49.980;19.776;2022-10-31T02:05:18;14.80;;;6.55;;
38427;SDS011;24211;49.980;19.776;2022-10-31T02:10:28;11.18;;;6.45;;
38427;SDS011;24211;49.980;19.776;2022-10-31T02:13:01;11.23;;;6.07;;
38427;SDS011;24211;49.980;19.776;2022-10-31T02:15:36;12.73;;;6.75;;
38427;SDS011;24211;49.980;19.776;2022-10-31T02:18:05;11.57;;;6.40;;
38427;SDS011;24211;49.980;19.776;2022-10-31T02:31:40;12.88;;;6.63;;
38427;SDS011;24211;49.980;19.776;2022-10-31T02:34:42;12.30;;;6.32;;
38427;SDS011;24211;49.980;19.776;2022-10-31T02:37:43;13.25;;;6.38;;
38427;SDS011;24211;49.980;19.776;2022-10-31T02:44:09;13.02;;;6.55;;
38427;SDS011;24211;49.980;19.776;2022-10-31T02:46:51;12.25;;;6.80;;
38427;SDS011;24211;49.980;19.776;2022-10-31T02:49:33;15.35;;;6.95;;
38427;SDS011;24211;49.980;19.776;2022-10-31T02:52:22;13.52;;;7.18;;
38427;SDS011;24211;49.980;19.776;2022-10-31T02:55:40;13.05;;;6.80;;
38427;SDS011;24211;49.980;19.776;2022-10-31T02:58:05;13.15;;;7.05;;
38427;SDS011;24211;49.980;19.776;2022-10-31T03:00:49;11.95;;;6.55;;
38427;SDS011;24211;49.980;19.776;2022-10-31T03:09:08;12.30;;;6.93;;
38427;SDS011;24211;49.980;19.776;2022-10-31T03:17:18;12.85;;;6.45;;
38427;SDS011;24211;49.980;19.776;2022-10-31T03:20:01;12.27;;;6.60;;
38427;SDS011;24211;49.980;19.776;2022-10-31T03:22:35;12.77;;;6.93;;
38427;SDS011;24211;49.980;19.776;2022-10-31T03:25:07;12.85;;;6.35;;
38427;SDS011;24211;49.980;19.776;2022-10-31T03:27:36;13.07;;;6.72;;
38427;SDS011;24211;49.980;19.776;2022-10-31T03:30:07;13.00;;;6.50;;
38427;SDS011;24211;49.980;19.776;2022-10-31T03:32:51;14.75;;;6.82;;
38427;SDS011;24211;49.980;19.776;2022-10-31T03:35:23;14.07;;;6.18;;
38427;SDS011;24211;49.980;19.776;2022-10-31T03:37:53;13.07;;;6.47;;
38427;SDS011;24211;49.980;19.776;2022-10-31T03:40:32;11.40;;;6.10;;
38427;SDS011;24211;49.980;19.776;2022-10-31T03:43:06;12.02;;;6.10;;
38427;SDS011;24211;49.980;19.776;2022-10-31T03:45:43;11.60;;;6.10;;
38427;SDS011;24211;49.980;19.776;2022-10-31T03:48:14;13.13;;;6.55;;
38427;SDS011;24211;49.980;19.776;2022-10-31T03:50:49;12.25;;;6.22;;
38427;SDS011;24211;49.980;19.776;2022-10-31T03:54:03;10.70;;;6.15;;
38427;SDS011;24211;49.980;19.776;2022-10-31T03:56:46;13.77;;;6.38;;
38427;SDS011;24211;49.980;19.776;2022-10-31T03:59:32;12.63;;;6.25;;
38427;SDS011;24211;49.980;19.776;2022-10-31T04:02:10;12.93;;;6.57;;
38427;SDS011;24211;49.980;19.776;2022-10-31T04:04:43;13.60;;;6.80;;
38427;SDS011;24211;49.980;19.776;2022-10-31T04:07:15;11.30;;;6.10;;
38427;SDS011;24211;49.980;19.776;2022-10-31T04:09:48;13.55;;;6.43;;
38427;SDS011;24211;49.980;19.776;2022-10-31T04:12:19;11.52;;;5.93;;
38427;SDS011;24211;49.980;19.776;2022-10-31T04:15:00;12.15;;;6.32;;
38427;SDS011;24211;49.980;19.776;2022-10-31T04:17:34;13.77;;;6.45;;
38427;SDS011;24211;49.980;19.776;2022-10-31T04:20:07;13.32;;;6.47;;
38427;SDS011;24211;49.980;19.776;2022-10-31T04:22:35;11.85;;;6.35;;
38427;SDS011;24211;49.980;19.776;2022-10-31T04:25:02;12.88;;;6.30;;
38427;SDS011;24211;49.980;19.776;2022-10-31T04:27:30;10.93;;;6.10;;
38427;SDS011;24211;49.980;19.776;2022-10-31T04:29:57;11.07;;;5.82;;
38427;SDS011;24211;49.980;19.776;2022-10-31T04:32:25;11.82;;;5.43;;
38427;SDS011;24211;49.980;19.776;2022-10-31T04:34:54;11.48;;;6.03;;
38427;SDS011;24211;49.980;19.776;2022-10-31T04:37:21;11.18;;;6.30;;
38427;SDS011;24211;49.980;19.776;2022-10-31T04:39:48;11.38;;;5.90;;
38427;SDS011;24211;49.980;19.776;2022-10-31T04:42:40;10.57;;;5.35;;
38427;SDS011;24211;49.980;19.776;2022-10-31T04:45:07;11.55;;;6.05;;
38427;SDS011;24211;49.980;19.776;2022-10-31T04:47:36;12.50;;;6.05;;
38427;SDS011;24211;49.980;19.776;2022-10-31T04:50:03;12.23;;;6.13;;
38427;SDS011;24211;49.980;19.776;2022-10-31T04:52:32;11.35;;;5.72;;
38427;SDS011;24211;49.980;19.776;2022-10-31T04:55:06;12.70;;;6.25;;
38427;SDS011;24211;49.980;19.776;2022-10-31T04:57:44;11.02;;;5.97;;
38427;SDS011;24211;49.980;19.776;2022-10-31T05:00:16;12.45;;;6.15;;
38427;SDS011;24211;49.980;19.776;2022-10-31T05:02:48;12.88;;;6.32;;
38427;SDS011;24211;49.980;19.776;2022-10-31T05:05:19;13.88;;;6.68;;
38427;SDS011;24211;49.980;19.776;2022-10-31T05:07:51;14.20;;;7.72;;
38427;SDS011;24211;49.980;19.776;2022-10-31T05:10:25;15.73;;;7.85;;
38427;SDS011;24211;49.980;19.776;2022-10-31T05:12:59;17.10;;;8.20;;
38427;SDS011;24211;49.980;19.776;2022-10-31T05:15:53;16.98;;;8.30;;
38427;SDS011;24211;49.980;19.776;2022-10-31T05:18:52;15.93;;;8.45;;
38427;SDS011;24211;49.980;19.776;2022-10-31T05:21:38;16.45;;;8.32;;
38427;SDS011;24211;49.980;19.776;2022-10-31T05:24:06;18.02;;;8.95;;
38427;SDS011;24211;49.980;19.776;2022-10-31T05:26:35;16.65;;;8.82;;
38427;SDS011;24211;49.980;19.776;2022-10-31T05:29:02;17.30;;;8.65;;
38427;SDS011;24211;49.980;19.776;2022-10-31T05:31:29;16.50;;;9.13;;
38427;SDS011;24211;49.980;19.776;2022-10-31T05:33:57;15.95;;;8.25;;
38427;SDS011;24211;49.980;19.776;2022-10-31T05:36:47;14.85;;;8.13;;
38427;SDS011;24211;49.980;19.776;2022-10-31T05:39:16;15.43;;;7.78;;
38427;SDS011;24211;49.980;19.776;2022-10-31T05:41:47;15.63;;;8.05;;
38427;SDS011;24211;49.980;19.776;2022-10-31T05:44:19;14.15;;;7.75;;
38427;SDS011;24211;49.980;19.776;2022-10-31T05:46:56;13.38;;;7.40;;
38427;SDS011;24211;49.980;19.776;2022-10-31T05:49:42;14.43;;;7.28;;
38427;SDS011;24211;49.980;19.776;2022-10-31T05:52:27;12.75;;;7.10;;
38427;SDS011;24211;49.980;19.776;2022-10-31T05:55:03;14.35;;;6.97;;
38427;SDS011;24211;49.980;19.776;2022-10-31T05:57:31;11.80;;;6.63;;
38427;SDS011;24211;49.980;19.776;2022-10-31T06:00:00;12.73;;;6.93;;
38427;SDS011;24211;49.980;19.776;2022-10-31T06:02:33;13.10;;;7.15;;
38427;SDS011;24211;49.980;19.776;2022-10-31T06:05:19;13.02;;;6.90;;
38427;SDS011;24211;49.980;19.776;2022-10-31T06:07:47;13.05;;;6.53;;
38427;SDS011;24211;49.980;19.776;2022-10-31T06:10:14;13.48;;;6.60;;
38427;SDS011;24211;49.980;19.776;2022-10-31T06:12:44;14.38;;;7.18;;
38427;SDS011;24211;49.980;19.776;2022-10-31T06:17:59;12.05;;;7.00;;
38427;SDS011;24211;49.980;19.776;2022-10-31T06:20:35;13.60;;;7.32;;
38427;SDS011;24211;49.980;19.776;2022-10-31T06:23:04;13.80;;;6.88;;
38427;SDS011;24211;49.980;19.776;2022-10-31T06:25:32;13.52;;;7.20;;
38427;SDS011;24211;49.980;19.776;2022-10-31T06:28:00;16.05;;;7.70;;
38427;SDS011;24211;49.980;19.776;2022-10-31T06:30:36;13.40;;;7.10;;
38427;SDS011;24211;49.980;19.776;2022-10-31T06:33:03;13.48;;;7.03;;
38427;SDS011;24211;49.980;19.776;2022-10-31T06:35:34;13.50;;;6.55;;
38427;SDS011;24211;49.980;19.776;2022-10-31T06:38:02;13.02;;;7.00;;
38427;SDS011;24211;49.980;19.776;2022-10-31T06:40:37;11.93;;;6.13;;
38427;SDS011;24211;49.980;19.776;2022-10-31T06:43:18;13.05;;;6.40;;
38427;SDS011;24211;49.980;19.776;2022-10-31T06:45:47;15.32;;;7.57;;
38427;SDS011;24211;49.980;19.776;2022-10-31T06:48:27;14.57;;;7.53;;
38427;SDS011;24211;49.980;19.776;2022-10-31T06:51:19;13.57;;;7.00;;
38427;SDS011;24211;49.980;19.776;2022-10-31T06:53:49;14.48;;;6.65;;
38427;SDS011;24211;49.980;19.776;2022-10-31T06:56:17;12.88;;;6.70;;
38427;SDS011;24211;49.980;19.776;2022-10-31T06:58:48;13.82;;;6.80;;
38427;SDS011;24211;49.980;19.776;2022-10-31T07:01:20;12.23;;;6.35;;
38427;SDS011;24211;49.980;19.776;2022-10-31T07:03:47;12.63;;;6.53;;
38427;SDS011;24211;49.980;19.776;2022-10-31T07:06:15;13.40;;;6.63;;
38427;SDS011;24211;49.980;19.776;2022-10-31T07:08:42;13.43;;;6.95;;
38427;SDS011;24211;49.980;19.776;2022-10-31T07:11:09;14.02;;;6.93;;
38427;SDS011;24211;49.980;19.776;2022-10-31T07:13:38;14.95;;;7.70;;
38427;SDS011;24211;49.980;19.776;2022-10-31T07:16:07;14.85;;;7.85;;
38427;SDS011;24211;49.980;19.776;2022-10-31T07:18:36;16.23;;;8.15;;
38427;SDS011;24211;49.980;19.776;2022-10-31T07:21:05;14.23;;;7.28;;
38427;SDS011;24211;49.980;19.776;2022-10-31T07:23:32;16.58;;;7.93;;
38427;SDS011;24211;49.980;19.776;2022-10-31T07:26:28;17.63;;;8.77;;
38427;SDS011;24211;49.980;19.776;2022-10-31T07:28:56;17.45;;;7.82;;
38427;SDS011;24211;49.980;19.776;2022-10-31T07:31:24;15.60;;;8.07;;
38427;SDS011;24211;49.980;19.776;2022-10-31T07:33:56;14.95;;;7.78;;
38427;SDS011;24211;49.980;19.776;2022-10-31T07:36:26;15.80;;;8.27;;
38427;SDS011;24211;49.980;19.776;2022-10-31T07:38:57;15.45;;;8.43;;
38427;SDS011;24211;49.980;19.776;2022-10-31T07:41:25;21.42;;;9.57;;
38427;SDS011;24211;49.980;19.776;2022-10-31T07:43:53;19.95;;;9.93;;
38427;SDS011;24211;49.980;19.776;2022-10-31T07:46:52;21.95;;;10.50;;
38427;SDS011;24211;49.980;19.776;2022-10-31T07:49:19;21.48;;;11.25;;
38427;SDS011;24211;49.980;19.776;2022-10-31T07:52:07;20.20;;;11.30;;
38427;SDS011;24211;49.980;19.776;2022-10-31T07:54:54;22.50;;;11.52;;
38427;SDS011;24211;49.980;19.776;2022-10-31T07:57:23;23.02;;;11.07;;
38427;SDS011;24211;49.980;19.776;2022-10-31T07:59:51;22.77;;;11.05;;
38427;SDS011;24211;49.980;19.776;2022-10-31T08:02:18;20.33;;;10.88;;
38427;SDS011;24211;49.980;19.776;2022-10-31T08:04:45;19.98;;;10.63;;
38427;SDS011;24211;49.980;19.776;2022-10-31T08:07:42;22.90;;;11.02;;
38427;SDS011;24211;49.980;19.776;2022-10-31T08:10:16;18.73;;;10.50;;
38427;SDS011;24211;49.980;19.776;2022-10-31T08:12:44;21.40;;;11.00;;
38427;SDS011;24211;49.980;19.776;2022-10-31T08:15:11;21.50;;;10.75;;
38427;SDS011;24211;49.980;19.776;2022-10-31T08:17:39;20.70;;;10.45;;
38427;SDS011;24211;49.980;19.776;2022-10-31T08:20:06;19.20;;;10.45;;
38427;SDS011;24211;49.980;19.776;2022-10-31T08:22:41;21.02;;;9.93;;
38427;SDS011;24211;49.980;19.776;2022-10-31T08:25:10;19.40;;;10.43;;
38427;SDS011;24211;49.980;19.776;2022-10-31T08:27:39;18.05;;;9.68;;
38427;SDS011;24211;49.980;19.776;2022-10-31T08:30:13;19.15;;;9.65;;
38427;SDS011;24211;49.980;19.776;2022-10-31T08:32:58;19.42;;;9.40;;
38427;SDS011;24211;49.980;19.776;2022-10-31T08:36:03;19.05;;;9.30;;
38427;SDS011;24211;49.980;19.776;2022-10-31T08:38:47;19.83;;;8.98;;
38427;SDS011;24211;49.980;19.776;2022-10-31T08:41:16;18.98;;;9.35;;
38427;SDS011;24211;49.980;19.776;2022-10-31T08:43:43;19.70;;;8.68;;
38427;SDS011;24211;49.980;19.776;2022-10-31T08:46:11;15.48;;;8.65;;
38427;SDS011;24211;49.980;19.776;2022-10-31T08:48:41;15.35;;;8.30;;
38427;SDS011;24211;49.980;19.776;2022-10-31T08:51:09;18.30;;;8.52;;
38427;SDS011;24211;49.980;19.776;2022-10-31T08:53:38;17.05;;;8.20;;
38427;SDS011;24211;49.980;19.776;2022-10-31T08:56:34;18.65;;;8.40;;
38427;SDS011;24211;49.980;19.776;2022-10-31T08:59:07;15.13;;;8.02;;
38427;SDS011;24211;49.980;19.776;2022-10-31T09:02:13;18.48;;;8.35;;
38427;SDS011;24211;49.980;19.776;2022-10-31T09:04:40;13.18;;;6.88;;
38427;SDS011;24211;49.980;19.776;2022-10-31T09:07:07;14.57;;;7.70;;
38427;SDS011;24211;49.980;19.776;2022-10-31T09:09:52;16.20;;;7.15;;
38427;SDS011;24211;49.980;19.776;2022-10-31T09:12:20;16.17;;;6.82;;
38427;SDS011;24211;49.980;19.776;2022-10-31T09:15:06;15.32;;;6.40;;
38427;SDS011;24211;49.980;19.776;2022-10-31T09:17:47;13.63;;;6.78;;
38427;SDS011;24211;49.980;19.776;2022-10-31T09:20:25;13.85;;;6.82;;
38427;SDS011;24211;49.980;19.776;2022-10-31T09:22:57;13.43;;;5.82;;
38427;SDS011;24211;49.980;19.776;2022-10-31T09:25:35;11.98;;;6.20;;
38427;SDS011;24211;49.980;19.776;2022-10-31T09:28:22;12.40;;;6.22;;
38427;SDS011;24211;49.980;19.776;2022-10-31T09:30:52;11.63;;;6.63;;
38427;SDS011;24211;49.980;19.776;2022-10-31T09:33:40;12.07;;;5.75;;
38427;SDS011;24211;49.980;19.776;2022-10-31T09:36:28;14.95;;;6.53;;
38427;SDS011;24211;49.980;19.776;2022-10-31T09:38:56;15.07;;;6.72;;
38427;SDS011;24211;49.980;19.776;2022-10-31T09:41:29;12.68;;;6.47;;
38427;SDS011;24211;49.980;19.776;2022-10-31T09:44:33;12.50;;;6.32;;
38427;SDS011;24211;49.980;19.776;2022-10-31T09:53:54;13.15;;;6.40;;
38427;SDS011;24211;49.980;19.776;2022-10-31T09:56:44;15.98;;;7.13;;
38427;SDS011;24211;49.980;19.776;2022-10-31T09:59:12;12.85;;;6.47;;
38427;SDS011;24211;49.980;19.776;2022-10-31T10:01:56;13.30;;;6.35;;
38427;SDS011;24211;49.980;19.776;2022-10-31T10:28:47;11.48;;;6.20;;
38427;SDS011;24211;49.980;19.776;2022-10-31T10:31:24;13.82;;;6.72;;
38427;SDS011;24211;49.980;19.776;2022-10-31T10:36:40;16.77;;;6.97;;
38427;SDS011;24211;49.980;19.776;2022-10-31T10:39:18;15.70;;;7.28;;
38427;SDS011;24211;49.980;19.776;2022-10-31T10:41:52;14.13;;;6.60;;
38427;SDS011;24211;49.980;19.776;2022-10-31T10:44:45;17.90;;;7.07;;
38427;SDS011;24211;49.980;19.776;2022-10-31T10:47:44;18.67;;;7.72;;
38427;SDS011;24211;49.980;19.776;2022-10-31T10:50:27;17.17;;;6.95;;
38427;SDS011;24211;49.980;19.776;2022-10-31T10:58:24;15.52;;;7.10;;
38427;SDS011;24211;49.980;19.776;2022-10-31T11:00:52;16.73;;;7.20;;
38427;SDS011;24211;49.980;19.776;2022-10-31T11:03:21;16.63;;;7.03;;
38427;SDS011;24211;49.980;19.776;2022-10-31T11:05:52;13.93;;;6.82;;
38427;SDS011;24211;49.980;19.776;2022-10-31T11:08:29;16.02;;;7.18;;
38427;SDS011;24211;49.980;19.776;2022-10-31T11:13:54;19.60;;;7.20;;
38427;SDS011;24211;49.980;19.776;2022-10-31T11:16:40;18.27;;;7.15;;
38427;SDS011;24211;49.980;19.776;2022-10-31T11:21:44;14.27;;;6.55;;
38427;SDS011;24211;49.980;19.776;2022-10-31T11:27:05;13.05;;;6.63;;
38427;SDS011;24211;49.980;19.776;2022-10-31T11:29:52;14.15;;;6.85;;
38427;SDS011;24211;49.980;19.776;2022-10-31T11:32:29;13.45;;;6.25;;
38427;SDS011;24211;49.980;19.776;2022-10-31T11:34:58;13.93;;;6.22;;
38427;SDS011;24211;49.980;19.776;2022-10-31T11:37:31;15.20;;;6.32;;
38427;SDS011;24211;49.980;19.776;2022-10-31T11:40:14;13.35;;;6.35;;
38427;SDS011;24211;49.980;19.776;2022-10-31T11:42:47;13.75;;;5.82;;
38427;SDS011;24211;49.980;19.776;2022-10-31T11:45:29;14.98;;;5.65;;
38427;SDS011;24211;49.980;19.776;2022-10-31T11:48:01;11.40;;;5.57;;
38427;SDS011;24211;49.980;19.776;2022-10-31T11:50:46;13.50;;;5.60;;
38427;SDS011;24211;49.980;19.776;2022-10-31T11:53:27;13.25;;;5.88;;
38427;SDS011;24211;49.980;19.776;2022-10-31T11:56:10;11.77;;;5.43;;
38427;SDS011;24211;49.980;19.776;2022-10-31T11:58:42;12.63;;;5.50;;
38427;SDS011;24211;49.980;19.776;2022-10-31T12:01:24;13.38;;;5.60;;
38427;SDS011;24211;49.980;19.776;2022-10-31T12:03:58;12.18;;;5.15;;
38427;SDS011;24211;49.980;19.776;2022-10-31T12:06:35;11.85;;;5.18;;
38427;SDS011;24211;49.980;19.776;2022-10-31T12:09:22;15.15;;;5.00;;
38427;SDS011;24211;49.980;19.776;2022-10-31T12:12:03;11.63;;;5.20;;
38427;SDS011;24211;49.980;19.776;2022-10-31T12:15:04;11.10;;;5.10;;
38427;SDS011;24211;49.980;19.776;2022-10-31T12:29:24;12.63;;;5.18;;
38427;SDS011;24211;49.980;19.776;2022-10-31T12:38:15;12.02;;;4.90;;
38427;SDS011;24211;49.980;19.776;2022-10-31T12:56:47;9.30;;;4.22;;
38427;SDS011;24211;49.980;19.776;2022-10-31T12:59:34;12.18;;;4.70;;
38427;SDS011;24211;49.980;19.776;2022-10-31T13:08:11;9.52;;;4.00;;
38427;SDS011;24211;49.980;19.776;2022-10-31T13:10:47;11.27;;;4.40;;
38427;SDS011;24211;49.980;19.776;2022-10-31T13:13:37;18.40;;;4.60;;
38427;SDS011;24211;49.980;19.776;2022-10-31T13:16:19;9.35;;;3.97;;
38427;SDS011;24211;49.980;19.776;2022-10-31T13:18:52;10.55;;;4.00;;
38427;SDS011;24211;49.980;19.776;2022-10-31T13:21:30;11.75;;;4.50;;
38427;SDS011;24211;49.980;19.776;2022-10-31T13:24:09;8.35;;;3.53;;
38427;SDS011;24211;49.980;19.776;2022-10-31T13:26:47;10.90;;;4.10;;
38427;SDS011;24211;49.980;19.776;2022-10-31T13:29:23;8.40;;;3.40;;
38427;SDS011;24211;49.980;19.776;2022-10-31T13:32:00;11.48;;;3.75;;
38427;SDS011;24211;49.980;19.776;2022-10-31T13:34:37;10.05;;;3.65;;
38427;SDS011;24211;49.980;19.776;2022-10-31T13:37:37;13.23;;;4.40;;
38427;SDS011;24211;49.980;19.776;2022-10-31T13:40:50;8.60;;;3.80;;
38427;SDS011;24211;49.980;19.776;2022-10-31T13:46:21;10.85;;;3.65;;
38427;SDS011;24211;49.980;19.776;2022-10-31T13:48:52;11.57;;;3.90;;
38427;SDS011;24211;49.980;19.776;2022-10-31T13:51:30;10.70;;;3.92;;
38427;SDS011;24211;49.980;19.776;2022-10-31T13:54:01;12.32;;;3.97;;
38427;SDS011;24211;49.980;19.776;2022-10-31T13:56:51;10.50;;;4.20;;
38427;SDS011;24211;49.980;19.776;2022-10-31T13:59:22;14.60;;;4.40;;
38427;SDS011;24211;49.980;19.776;2022-10-31T14:01:57;10.90;;;3.97;;
38427;SDS011;24211;49.980;19.776;2022-10-31T14:04:48;12.07;;;4.47;;
38427;SDS011;24211;49.980;19.776;2022-10-31T14:07:24;9.30;;;4.40;;
38427;SDS011;24211;49.980;19.776;2022-10-31T14:09:55;11.15;;;4.28;;
38427;SDS011;24211;49.980;19.776;2022-10-31T14:12:38;11.82;;;4.18;;
38427;SDS011;24211;49.980;19.776;2022-10-31T14:20:39;10.30;;;4.07;;
38427;SDS011;24211;49.980;19.776;2022-10-31T14:29:21;8.73;;;3.67;;
38427;SDS011;24211;49.980;19.776;2022-10-31T14:31:52;10.02;;;3.75;;
38427;SDS011;24211;49.980;19.776;2022-10-31T14:34:32;10.35;;;3.42;;
38427;SDS011;24211;49.980;19.776;2022-10-31T14:40:24;10.35;;;3.50;;
38427;SDS011;24211;49.980;19.776;2022-10-31T14:49:21;9.27;;;3.35;;
38427;SDS011;24211;49.980;19.776;2022-10-31T14:52:13;7.45;;;3.30;;
38427;SDS011;24211;49.980;19.776;2022-10-31T14:54:47;7.90;;;3.50;;
38427;SDS011;24211;49.980;19.776;2022-10-31T14:57:26;9.50;;;3.70;;
38427;SDS011;24211;49.980;19.776;2022-10-31T15:00:00;10.07;;;4.03;;
38427;SDS011;24211;49.980;19.776;2022-10-31T15:05:20;9.80;;;3.95;;
38427;SDS011;24211;49.980;19.776;2022-10-31T15:07:48;8.13;;;3.30;;
38427;SDS011;24211;49.980;19.776;2022-10-31T15:13:08;8.88;;;3.53;;
38427;SDS011;24211;49.980;19.776;2022-10-31T15:15:48;9.50;;;3.47;;
38427;SDS011;24211;49.980;19.776;2022-10-31T15:18:21;9.50;;;3.78;;
38427;SDS011;24211;49.980;19.776;2022-10-31T15:20:53;8.43;;;3.53;;
38427;SDS011;24211;49.980;19.776;2022-10-31T15:23:24;8.02;;;3.55;;
38427;SDS011;24211;49.980;19.776;2022-10-31T15:26:02;8.05;;;3.88;;
38427;SDS011;24211;49.980;19.776;2022-10-31T15:28:32;8.45;;;3.80;;
38427;SDS011;24211;49.980;19.776;2022-10-31T15:30:59;9.60;;;3.70;;
38427;SDS011;24211;49.980;19.776;2022-10-31T15:33:39;7.18;;;3.55;;
38427;SDS011;24211;49.980;19.776;2022-10-31T15:36:21;8.60;;;3.90;;
38427;SDS011;24211;49.980;19.776;2022-10-31T15:38:56;8.93;;;3.78;;
38427;SDS011;24211;49.980;19.776;2022-10-31T15:44:26;9.13;;;4.32;;
38427;SDS011;24211;49.980;19.776;2022-10-31T15:47:01;9.02;;;3.85;;
38427;SDS011;24211;49.980;19.776;2022-10-31T15:49:54;9.57;;;4.35;;
38427;SDS011;24211;49.980;19.776;2022-10-31T15:57:51;9.57;;;4.40;;
38427;SDS011;24211;49.980;19.776;2022-10-31T16:00:30;9.38;;;4.43;;
38427;SDS011;24211;49.980;19.776;2022-10-31T16:03:10;13.80;;;5.03;;
38427;SDS011;24211;49.980;19.776;2022-10-31T16:05:53;13.13;;;5.78;;
38427;SDS011;24211;49.980;19.776;2022-10-31T16:13:34;15.98;;;6.63;;
38427;SDS011;24211;49.980;19.776;2022-10-31T16:16:11;26.20;;;10.95;;
38427;SDS011;24211;49.980;19.776;2022-10-31T16:19:03;25.35;;;10.13;;
38427;SDS011;24211;49.980;19.776;2022-10-31T16:21:43;22.80;;;9.75;;
38427;SDS011;24211;49.980;19.776;2022-10-31T16:27:01;28.90;;;10.65;;
38427;SDS011;24211;49.980;19.776;2022-10-31T16:29:41;24.85;;;10.05;;
38427;SDS011;24211;49.980;19.776;2022-10-31T16:37:38;26.55;;;9.80;;
38427;SDS011;24211;49.980;19.776;2022-10-31T16:40:07;26.95;;;10.80;;
38427;SDS011;24211;49.980;19.776;2022-10-31T16:42:40;24.70;;;10.32;;
38427;SDS011;24211;49.980;19.776;2022-10-31T16:45:17;23.38;;;10.05;;
38427;SDS011;24211;49.980;19.776;2022-10-31T16:47:50;27.65;;;9.93;;
38427;SDS011;24211;49.980;19.776;2022-10-31T16:50:20;26.83;;;10.43;;
38427;SDS011;24211;49.980;19.776;2022-10-31T16:52:53;23.02;;;10.27;;
38427;SDS011;24211;49.980;19.776;2022-10-31T16:55:44;20.50;;;9.40;;
38427;SDS011;24211;49.980;19.776;2022-10-31T16:58:17;23.55;;;9.57;;
38427;SDS011;24211;49.980;19.776;2022-10-31T17:00:52;23.38;;;8.93;;
38427;SDS011;24211;49.980;19.776;2022-10-31T17:03:20;18.88;;;8.32;;
38427;SDS011;24211;49.980;19.776;2022-10-31T17:05:47;18.38;;;8.38;;
38427;SDS011;24211;49.980;19.776;2022-10-31T17:08:15;19.63;;;8.00;;
38427;SDS011;24211;49.980;19.776;2022-10-31T17:10:42;18.10;;;8.23;;
38427;SDS011;24211;49.980;19.776;2022-10-31T17:13:13;19.40;;;8.00;;
38427;SDS011;24211;49.980;19.776;2022-10-31T17:15:52;17.90;;;8.05;;
38427;SDS011;24211;49.980;19.776;2022-10-31T17:18:22;17.88;;;7.80;;
38427;SDS011;24211;49.980;19.776;2022-10-31T17:20:56;18.77;;;7.90;;
38427;SDS011;24211;49.980;19.776;2022-10-31T17:23:26;20.92;;;8.35;;
38427;SDS011;24211;49.980;19.776;2022-10-31T17:25:55;18.80;;;8.40;;
38427;SDS011;24211;49.980;19.776;2022-10-31T17:28:22;17.35;;;7.75;;
38427;SDS011;24211;49.980;19.776;2022-10-31T17:30:53;18.52;;;7.65;;
38427;SDS011;24211;49.980;19.776;2022-10-31T17:33:23;17.70;;;7.72;;
38427;SDS011;24211;49.980;19.776;2022-10-31T17:35:51;17.30;;;7.65;;
38427;SDS011;24211;49.980;19.776;2022-10-31T17:38:18;16.67;;;7.55;;
38427;SDS011;24211;49.980;19.776;2022-10-31T17:40:45;16.10;;;7.35;;
38427;SDS011;24211;49.980;19.776;2022-10-31T17:43:13;16.77;;;7.20;;
38427;SDS011;24211;49.980;19.776;2022-10-31T17:45:41;16.77;;;7.00;;
38427;SDS011;24211;49.980;19.776;2022-10-31T17:48:09;16.98;;;7.43;;
38427;SDS011;24211;49.980;19.776;2022-10-31T17:50:38;18.25;;;7.75;;
38427;SDS011;24211;49.980;19.776;2022-10-31T17:53:05;19.40;;;7.75;;
38427;SDS011;24211;49.980;19.776;2022-10-31T17:55:32;19.35;;;7.65;;
38427;SDS011;24211;49.980;19.776;2022-10-31T17:58:03;24.63;;;8.85;;
38427;SDS011;24211;49.980;19.776;2022-10-31T18:00:31;23.80;;;8.82;;
38427;SDS011;24211;49.980;19.776;2022-10-31T18:03:00;22.00;;;8.35;;
38427;SDS011;24211;49.980;19.776;2022-10-31T18:05:30;24.48;;;8.82;;